createdAt,value
2023-02-26T00:02:28.973Z,92.10
2023-02-26T00:05:04.993Z,92.39
2023-02-26T00:07:49.897Z,93.19
2023-02-26T00:10:30.461Z,91.85
2023-02-26T00:13:16.811Z,92.42
2023-02-26T00:15:59.151Z,92.26
2023-02-26T00:18:48.669Z,92.03
2023-02-26T00:21:26.623Z,91.88
2023-02-26T00:24:06.802Z,92.55
2023-02-26T00:27:00.461Z,92.98
2023-02-26T00:29:39.388Z,92.82
2023-02-26T00:32:08.718Z,92.28
2023-02-26T00:34:37.849Z,92.64
2023-02-26T00:37:39.236Z,92.19
2023-02-26T00:40:26.874Z,92.52
2023-02-26T00:42:58.752Z,92.59
2023-02-26T00:45:27.818Z,92.34
2023-02-26T00:48:04.880Z,92.18
2023-02-26T00:50:38.676Z,92.23
2023-02-26T00:53:23.107Z,92.44
2023-02-26T00:55:54.406Z,92.52
2023-02-26T00:58:23.647Z,92.97
2023-02-26T01:00:54.538Z,93.00
2023-02-26T01:03:23.548Z,92.42
2023-02-26T01:05:54.989Z,92.56
2023-02-26T01:08:45.563Z,92.66
2023-02-26T01:11:14.656Z,92.74
2023-02-26T01:13:45.899Z,92.85
2023-02-26T01:16:20.161Z,92.18
2023-02-26T01:18:54.763Z,91.78
2023-02-26T01:21:38.434Z,90.93
2023-02-26T01:24:11.534Z,90.97
2023-02-26T01:26:40.346Z,91.84
2023-02-26T01:29:11.500Z,92.27
2023-02-26T01:32:29.556Z,91.77
2023-02-26T01:35:02.465Z,91.89
2023-02-26T01:37:56.566Z,90.90
2023-02-26T01:40:46.561Z,91.21
2023-02-26T01:43:31.271Z,91.52
2023-02-26T01:46:14.464Z,92.82
2023-02-26T01:48:53.774Z,93.14
2023-02-26T01:52:02.403Z,93.66
2023-02-26T01:54:37.656Z,93.33
2023-02-26T01:57:08.511Z,91.81
2023-02-26T01:59:46.271Z,92.49
2023-02-26T02:02:22.743Z,91.61
2023-02-26T02:04:55.513Z,92.01
2023-02-26T02:07:24.622Z,92.29
2023-02-26T02:09:56.001Z,92.41
2023-02-26T02:13:05.045Z,92.37
2023-02-26T02:15:44.283Z,92.03
2023-02-26T02:18:32.200Z,92.31
2023-02-26T02:21:19.836Z,92.57
2023-02-26T02:24:01.107Z,92.32
2023-02-26T02:26:48.972Z,92.11
2023-02-26T02:29:28.690Z,91.91
2023-02-26T02:32:20.350Z,91.69
2023-02-26T02:35:04.190Z,91.34
2023-02-26T02:37:58.989Z,91.22
2023-02-26T02:40:36.761Z,90.81
2023-02-26T02:43:11.139Z,90.70
2023-02-26T02:45:45.458Z,90.47
2023-02-26T02:48:25.400Z,90.68
2023-02-26T02:51:04.089Z,90.89
2023-02-26T02:53:56.664Z,89.99
2023-02-26T02:56:29.614Z,90.02
2023-02-26T02:59:15.108Z,90.31
2023-02-26T03:01:53.217Z,90.22
2023-02-26T03:04:28.008Z,89.94
2023-02-26T03:07:02.443Z,90.73
2023-02-26T03:09:35.772Z,90.94
2023-02-26T03:12:09.968Z,90.90
2023-02-26T03:14:45.244Z,91.58
2023-02-26T03:17:39.742Z,91.00
2023-02-26T03:20:43.953Z,91.35
2023-02-26T03:23:28.543Z,91.77
2023-02-26T03:26:08.071Z,91.12
2023-02-26T03:28:55.509Z,91.77
2023-02-26T03:31:34.567Z,92.37
2023-02-26T03:34:49.594Z,92.55
2023-02-26T03:37:33.758Z,91.48
2023-02-26T03:40:18.937Z,92.18
2023-02-26T03:43:35.452Z,92.55
2023-02-26T03:46:15.650Z,92.40
2023-02-26T03:48:55.440Z,92.27
2023-02-26T03:51:30.743Z,92.27
2023-02-26T03:54:57.896Z,92.70
2023-02-26T03:57:59.463Z,93.41
2023-02-26T04:00:59.232Z,93.74
2023-02-26T04:03:45.270Z,94.00
2023-02-26T04:06:22.941Z,93.74
2023-02-26T04:09:15.263Z,93.08
2023-02-26T04:12:09.319Z,93.29
2023-02-26T04:15:04.904Z,93.63
2023-02-26T04:17:46.151Z,93.90
2023-02-26T04:20:25.691Z,94.16
2023-02-26T04:23:07.595Z,94.53
2023-02-26T04:25:49.133Z,94.26
2023-02-26T04:28:39.963Z,94.00
2023-02-26T04:31:16.799Z,94.56
2023-02-26T04:33:54.078Z,94.32
2023-02-26T04:36:33.897Z,94.04
2023-02-26T04:39:10.811Z,94.02
2023-02-26T04:41:55.947Z,93.94
2023-02-26T04:44:35.799Z,94.24
2023-02-26T04:47:17.595Z,94.19
2023-02-26T04:49:57.327Z,94.23
2023-02-26T04:52:33.325Z,94.14
2023-02-26T04:55:17.736Z,94.03
2023-02-26T04:57:54.430Z,94.04
2023-02-26T05:00:31.892Z,94.70
2023-02-26T05:03:08.819Z,94.45
2023-02-26T05:05:43.620Z,94.67
2023-02-26T05:08:19.964Z,94.76
2023-02-26T05:10:54.870Z,94.47
2023-02-26T05:13:28.437Z,94.69
2023-02-26T05:15:58.079Z,94.59
2023-02-26T05:18:29.047Z,94.56
2023-02-26T05:21:02.362Z,94.85
2023-02-26T05:23:34.032Z,94.69
2023-02-26T05:26:02.698Z,94.86
2023-02-26T05:28:34.050Z,94.97
2023-02-26T05:31:02.797Z,95.63
2023-02-26T05:33:34.411Z,94.72
2023-02-26T05:36:07.316Z,95.23
2023-02-26T05:38:38.264Z,94.54
2023-02-26T05:41:12.400Z,93.42
2023-02-26T05:43:43.853Z,94.20
2023-02-26T05:46:14.838Z,94.41
2023-02-26T05:48:48.253Z,95.37
2023-02-26T05:51:16.759Z,95.18
2023-02-26T05:53:48.905Z,95.33
2023-02-26T05:56:22.484Z,95.68
2023-02-26T05:58:53.823Z,95.26
2023-02-26T06:01:22.603Z,94.67
2023-02-26T06:03:56.483Z,95.17
2023-02-26T06:06:27.763Z,95.31
2023-02-26T06:09:01.390Z,95.87
2023-02-26T06:11:34.090Z,95.26
2023-02-26T06:14:03.158Z,94.79
2023-02-26T06:16:39.580Z,95.11
2023-02-26T06:19:13.647Z,95.63
2023-02-26T06:21:44.637Z,95.24
2023-02-26T06:24:18.247Z,94.74
2023-02-26T06:26:51.922Z,95.17
2023-02-26T06:29:21.070Z,95.52
2023-02-26T06:31:58.296Z,95.00
2023-02-26T06:34:35.814Z,94.61
2023-02-26T06:37:15.893Z,95.11
2023-02-26T06:39:47.926Z,94.97
2023-02-26T06:42:24.120Z,94.88
2023-02-26T06:44:57.640Z,94.91
2023-02-26T06:47:28.656Z,95.40
2023-02-26T06:50:05.379Z,95.43
2023-02-26T06:52:39.098Z,95.20
2023-02-26T06:55:11.735Z,94.86
2023-02-26T06:57:40.255Z,94.94
2023-02-26T07:00:12.653Z,95.14
2023-02-26T07:02:46.995Z,95.68
2023-02-26T07:05:26.097Z,95.72
2023-02-26T07:07:59.655Z,94.91
2023-02-26T07:10:30.848Z,95.12
2023-02-26T07:13:08.469Z,94.65
2023-02-26T07:15:45.988Z,95.39
2023-02-26T07:18:23.225Z,95.27
2023-02-26T07:20:59.023Z,95.32
2023-02-26T07:23:40.925Z,95.28
2023-02-26T07:26:18.515Z,95.55
2023-02-26T07:28:56.954Z,94.81
2023-02-26T07:31:36.970Z,95.13
2023-02-26T07:34:17.906Z,95.75
2023-02-26T07:36:50.955Z,95.66
2023-02-26T07:39:28.539Z,95.72
2023-02-26T07:42:10.392Z,95.38
2023-02-26T07:44:43.611Z,95.58
2023-02-26T07:47:31.023Z,95.85
2023-02-26T07:50:10.931Z,95.55
2023-02-26T07:52:53.705Z,95.06
2023-02-26T07:55:32.339Z,95.65
2023-02-26T07:58:10.768Z,95.85
2023-02-26T08:00:51.373Z,95.49
2023-02-26T08:03:32.522Z,95.55
2023-02-26T08:06:12.185Z,95.33
2023-02-26T08:09:02.525Z,94.96
2023-02-26T08:11:40.772Z,95.01
2023-02-26T08:14:19.833Z,94.67
2023-02-26T08:17:05.353Z,95.25
2023-02-26T08:19:55.725Z,95.38
2023-02-26T08:22:43.889Z,95.06
2023-02-26T08:25:48.381Z,94.57
2023-02-26T08:28:48.513Z,94.75
2023-02-26T08:31:39.036Z,94.50
2023-02-26T08:34:33.862Z,94.55
2023-02-26T08:37:23.557Z,94.82
2023-02-26T08:40:07.242Z,95.21
2023-02-26T08:42:49.651Z,94.59
2023-02-26T08:45:31.608Z,94.62
2023-02-26T08:48:15.717Z,94.99
2023-02-26T08:50:49.636Z,94.78
2023-02-26T08:53:18.742Z,94.63
2023-02-26T08:55:51.913Z,94.91
2023-02-26T08:58:23.022Z,95.12
2023-02-26T09:00:54.284Z,94.99
2023-02-26T09:03:29.654Z,95.07
2023-02-26T09:06:05.031Z,94.64
2023-02-26T09:08:36.619Z,95.05
2023-02-26T09:11:10.811Z,95.35
2023-02-26T09:13:43.101Z,95.55
2023-02-26T09:16:17.058Z,95.23
2023-02-26T09:18:50.820Z,95.04
2023-02-26T09:21:25.290Z,94.90
2023-02-26T09:23:59.537Z,94.86
2023-02-26T09:26:34.453Z,94.81
2023-02-26T09:29:05.166Z,94.33
2023-02-26T09:31:34.160Z,94.49
2023-02-26T09:34:10.495Z,94.67
2023-02-26T09:36:46.956Z,94.49
2023-02-26T09:39:20.595Z,94.60
2023-02-26T09:42:02.119Z,94.28
2023-02-26T09:44:42.402Z,93.93
2023-02-26T09:47:41.956Z,94.00
2023-02-26T09:50:39.253Z,93.84
2023-02-26T09:53:20.993Z,93.36
2023-02-26T09:55:59.231Z,93.13
2023-02-26T09:58:40.778Z,93.17
2023-02-26T10:01:22.078Z,93.26
2023-02-26T10:04:25.833Z,92.80
2023-02-26T10:07:32.944Z,93.11
2023-02-26T10:10:25.819Z,92.88
2023-02-26T10:12:55.053Z,93.14
2023-02-26T10:15:40.438Z,93.06
2023-02-26T10:18:14.448Z,93.16
2023-02-26T10:20:46.296Z,92.63
2023-02-26T10:23:21.025Z,92.37
2023-02-26T10:26:31.627Z,93.16
2023-02-26T10:29:26.787Z,92.67
2023-02-26T10:32:37.791Z,92.75
2023-02-26T10:35:16.752Z,93.09
2023-02-26T10:37:58.979Z,93.28
2023-02-26T10:40:48.891Z,93.44
2023-02-26T10:43:30.062Z,93.38
2023-02-26T10:46:53.075Z,93.51
2023-02-26T10:50:01.855Z,93.12
2023-02-26T10:52:36.435Z,92.95
2023-02-26T10:55:37.365Z,92.44
2023-02-26T10:58:18.049Z,91.56
2023-02-26T11:00:56.157Z,91.64
2023-02-26T11:03:41.691Z,91.67
2023-02-26T11:06:15.593Z,91.40
2023-02-26T11:08:54.468Z,90.67
2023-02-26T11:11:49.714Z,90.79
2023-02-26T11:14:27.582Z,90.86
2023-02-26T11:17:10.148Z,90.42
2023-02-26T11:20:00.953Z,90.37
2023-02-26T11:22:36.478Z,90.77
2023-02-26T11:25:17.268Z,90.22
2023-02-26T11:27:59.252Z,90.10
2023-02-26T11:30:39.840Z,89.77
2023-02-26T11:33:40.958Z,89.59
2023-02-26T11:36:28.430Z,89.92
2023-02-26T11:39:10.068Z,89.62
2023-02-26T11:41:47.152Z,90.22
2023-02-26T11:44:43.956Z,89.77
2023-02-26T11:47:27.333Z,89.48
2023-02-26T11:50:17.902Z,89.94
2023-02-26T11:53:08.437Z,90.23
2023-02-26T11:55:52.152Z,90.08
2023-02-26T11:58:30.744Z,89.76
2023-02-26T12:01:11.640Z,90.08
2023-02-26T12:03:53.281Z,90.09
2023-02-26T12:06:36.462Z,90.06
2023-02-26T12:09:15.456Z,90.18
2023-02-26T12:12:21.893Z,90.48
2023-02-26T12:15:21.812Z,90.29
2023-02-26T12:18:50.037Z,90.50
2023-02-26T12:22:14.479Z,90.40
2023-02-26T12:25:26.671Z,90.05
2023-02-26T12:28:42.225Z,89.87
2023-02-26T12:31:42.367Z,89.67
2023-02-26T12:35:24.177Z,90.17
2023-02-26T12:38:15.330Z,90.61
2023-02-26T12:41:13.980Z,90.45
2023-02-26T12:43:54.545Z,89.91
2023-02-26T12:46:41.412Z,89.81
2023-02-26T12:50:19.085Z,89.68
2023-02-26T12:53:11.375Z,89.90
2023-02-26T12:56:16.798Z,90.23
2023-02-26T12:59:01.665Z,89.51
2023-02-26T13:02:01.021Z,88.71
2023-02-26T13:05:09.815Z,88.79
2023-02-26T13:08:06.038Z,88.65
2023-02-26T13:10:54.011Z,88.95
2023-02-26T13:14:10.281Z,88.58
2023-02-26T13:17:21.318Z,89.09
2023-02-26T13:20:01.205Z,88.99
2023-02-26T13:22:46.047Z,88.54
2023-02-26T13:25:51.832Z,88.52
2023-02-26T13:29:01.823Z,87.92
2023-02-26T13:31:44.743Z,87.78
2023-02-26T13:34:37.170Z,88.04
2023-02-26T13:37:43.281Z,87.53
2023-02-26T13:40:15.139Z,86.21
2023-02-26T13:43:17.043Z,86.35
2023-02-26T13:46:08.870Z,86.71
2023-02-26T13:49:05.236Z,86.30
2023-02-26T13:51:45.038Z,86.12
2023-02-26T13:54:17.488Z,85.92
2023-02-26T13:57:06.774Z,85.40
2023-02-26T13:59:47.368Z,85.99
2023-02-26T14:02:46.402Z,86.06
2023-02-26T14:05:55.063Z,85.94
2023-02-26T14:08:39.693Z,85.76
2023-02-26T14:11:52.874Z,85.51
2023-02-26T14:14:37.772Z,85.43
2023-02-26T14:17:11.164Z,85.79
2023-02-26T14:19:43.934Z,86.02
2023-02-26T14:22:38.171Z,86.21
2023-02-26T14:25:12.593Z,87.06
2023-02-26T14:27:46.085Z,86.81
2023-02-26T14:30:31.147Z,86.46
2023-02-26T14:33:06.108Z,86.53
2023-02-26T14:35:42.394Z,86.94
2023-02-26T14:38:42.750Z,87.32
2023-02-26T14:41:33.943Z,87.55
2023-02-26T14:44:21.120Z,87.34
2023-02-26T14:46:51.506Z,87.20
2023-02-26T14:49:32.393Z,87.01
2023-02-26T14:52:16.680Z,86.77
2023-02-26T14:55:05.487Z,87.00
2023-02-26T14:58:11.390Z,86.90
2023-02-26T15:01:15.973Z,86.83
2023-02-26T15:04:08.133Z,87.43
2023-02-26T15:07:20.272Z,86.78
2023-02-26T15:10:14.802Z,86.47
2023-02-26T15:13:13.473Z,86.43
2023-02-26T15:16:21.129Z,86.00
2023-02-26T15:19:04.533Z,86.03
2023-02-26T15:22:33.310Z,86.16
2023-02-26T15:25:14.542Z,86.63
2023-02-26T15:27:48.825Z,87.00
2023-02-26T15:30:20.144Z,87.05
2023-02-26T15:32:49.298Z,87.57
2023-02-26T15:35:22.787Z,87.84
2023-02-26T15:38:01.244Z,87.69
2023-02-26T15:40:41.962Z,87.99
2023-02-26T15:43:24.508Z,88.07
2023-02-26T15:46:03.644Z,88.13
2023-02-26T15:48:42.255Z,88.33
2023-02-26T15:51:17.261Z,87.90
2023-02-26T15:53:55.386Z,86.25
2023-02-26T15:56:29.082Z,87.64
2023-02-26T15:59:25.093Z,87.98
2023-02-26T16:02:02.896Z,88.58
2023-02-26T16:04:47.155Z,88.59
2023-02-26T16:07:21.110Z,88.89
2023-02-26T16:10:07.023Z,88.83
2023-02-26T16:12:49.517Z,88.86
2023-02-26T16:15:37.994Z,89.09
2023-02-26T16:18:16.698Z,88.82
2023-02-26T16:20:56.710Z,88.72
2023-02-26T16:23:47.387Z,88.74
2023-02-26T16:27:00.111Z,88.51
2023-02-26T16:29:46.703Z,88.65
2023-02-26T16:32:30.164Z,88.44
2023-02-26T16:35:19.258Z,88.40
2023-02-26T16:38:03.262Z,88.04
2023-02-26T16:40:44.623Z,88.25
2023-02-26T16:43:56.318Z,88.10
2023-02-26T16:46:52.923Z,88.32
2023-02-26T16:49:41.456Z,88.56
2023-02-26T16:52:27.193Z,88.51
2023-02-26T16:55:05.636Z,88.63
2023-02-26T16:57:45.698Z,88.74
2023-02-26T17:00:37.445Z,88.83
2023-02-26T17:03:29.019Z,89.08
2023-02-26T17:06:11.742Z,88.97
2023-02-26T17:08:46.666Z,88.76
2023-02-26T17:11:29.925Z,88.71
2023-02-26T17:14:09.968Z,89.05
2023-02-26T17:16:38.538Z,89.34
2023-02-26T17:19:09.789Z,89.39
2023-02-26T17:21:49.045Z,89.43
2023-02-26T17:24:31.526Z,89.47
2023-02-26T17:27:02.563Z,89.08
2023-02-26T17:29:45.646Z,88.59
2023-02-26T17:32:20.455Z,88.51
2023-02-26T17:34:56.173Z,88.89
2023-02-26T17:37:33.912Z,88.98
2023-02-26T17:40:05.728Z,89.28
2023-02-26T17:42:34.595Z,89.29
2023-02-26T17:45:09.534Z,89.12
2023-02-26T17:47:38.642Z,89.20
2023-02-26T17:50:30.152Z,89.52
2023-02-26T17:52:58.666Z,89.65
2023-02-26T17:55:35.847Z,89.64
2023-02-26T17:58:18.599Z,89.72
2023-02-26T18:00:50.225Z,89.69
2023-02-26T18:03:24.335Z,89.59
2023-02-26T18:05:57.875Z,89.15
2023-02-26T18:08:31.494Z,89.24
2023-02-26T18:11:00.757Z,89.44
2023-02-26T18:13:32.438Z,89.55
2023-02-26T18:16:05.403Z,90.03
2023-02-26T18:18:37.598Z,90.31
2023-02-26T18:21:06.613Z,90.42
2023-02-26T18:23:35.787Z,90.63
2023-02-26T18:26:07.825Z,90.32
2023-02-26T18:28:38.878Z,89.98
2023-02-26T18:31:09.987Z,89.56
2023-02-26T18:33:44.009Z,89.26
2023-02-26T18:36:34.318Z,89.52
2023-02-26T18:39:08.562Z,89.55
2023-02-26T18:41:40.257Z,89.41
2023-02-26T18:44:08.768Z,90.27
2023-02-26T18:46:40.359Z,90.38
2023-02-26T18:49:18.265Z,90.31
2023-02-26T18:51:59.154Z,90.60
2023-02-26T18:54:30.042Z,90.77
2023-02-26T18:57:01.530Z,90.61
2023-02-26T18:59:30.417Z,89.39
2023-02-26T19:02:04.432Z,89.25
2023-02-26T19:04:38.937Z,90.15
2023-02-26T19:07:10.347Z,89.19
2023-02-26T19:09:50.678Z,90.10
2023-02-26T19:12:26.456Z,90.64
2023-02-26T19:15:06.107Z,90.72
2023-02-26T19:17:43.118Z,91.11
2023-02-26T19:20:14.972Z,91.16
2023-02-26T19:22:48.690Z,91.20
2023-02-26T19:25:24.464Z,91.37
2023-02-26T19:27:54.219Z,91.18
2023-02-26T19:30:25.293Z,91.27
2023-02-26T19:32:59.533Z,90.70
2023-02-26T19:35:30.880Z,90.75
2023-02-26T19:38:09.305Z,91.01
2023-02-26T19:40:46.042Z,90.99
2023-02-26T19:43:17.070Z,90.94
2023-02-26T19:45:53.827Z,90.53
2023-02-26T19:48:31.437Z,90.68
2023-02-26T19:51:14.447Z,90.51
2023-02-26T19:53:49.904Z,90.48
2023-02-26T19:56:33.840Z,90.53
2023-02-26T19:59:09.208Z,90.81
2023-02-26T20:01:54.251Z,90.68
2023-02-26T20:04:36.654Z,91.06
2023-02-26T20:07:18.153Z,91.25
2023-02-26T20:09:52.801Z,90.13
2023-02-26T20:12:30.528Z,90.85
2023-02-26T20:15:13.392Z,91.25
2023-02-26T20:17:54.376Z,90.93
2023-02-26T20:20:32.813Z,90.34
2023-02-26T20:23:13.657Z,91.45
2023-02-26T20:25:55.001Z,91.56
2023-02-26T20:28:44.607Z,90.58
2023-02-26T20:31:26.207Z,90.79
2023-02-26T20:34:07.407Z,90.71
2023-02-26T20:36:48.299Z,90.07
2023-02-26T20:39:37.547Z,91.27
2023-02-26T20:42:16.639Z,90.86
2023-02-26T20:44:56.502Z,90.78
2023-02-26T20:47:29.339Z,90.74
2023-02-26T20:49:57.508Z,91.56
2023-02-26T20:52:26.153Z,91.68
2023-02-26T20:54:57.049Z,91.67
2023-02-26T20:57:25.413Z,91.75
2023-02-26T20:59:54.293Z,91.81
2023-02-26T21:02:25.612Z,91.86
2023-02-26T21:04:54.886Z,92.13
2023-02-26T21:07:24.654Z,91.97
2023-02-26T21:09:54.043Z,92.29
2023-02-26T21:12:30.985Z,92.54
2023-02-26T21:15:06.230Z,92.29
2023-02-26T21:17:34.815Z,93.20
2023-02-26T21:20:06.188Z,93.55
2023-02-26T21:22:37.746Z,93.20
2023-02-26T21:25:09.602Z,92.92
2023-02-26T21:27:41.255Z,92.69
2023-02-26T21:30:12.151Z,92.82
2023-02-26T21:32:43.850Z,92.53
2023-02-26T21:35:16.152Z,92.94
2023-02-26T21:37:50.703Z,93.48
2023-02-26T21:40:25.100Z,93.03
2023-02-26T21:42:56.229Z,93.40
2023-02-26T21:45:27.332Z,93.62
2023-02-26T21:47:56.240Z,93.43
2023-02-26T21:50:28.107Z,93.00
2023-02-26T21:53:02.582Z,93.14
2023-02-26T21:55:34.096Z,93.39
2023-02-26T21:58:03.100Z,93.22
2023-02-26T22:00:31.876Z,93.16
2023-02-26T22:03:00.557Z,93.79
2023-02-26T22:05:32.211Z,94.25
2023-02-26T22:08:00.717Z,93.76
2023-02-26T22:10:34.185Z,92.91
2023-02-26T22:13:05.706Z,93.28
2023-02-26T22:15:34.720Z,93.59
2023-02-26T22:18:04.167Z,93.85
2023-02-26T22:20:33.336Z,94.39
2023-02-26T22:23:02.660Z,93.87
2023-02-26T22:25:33.849Z,94.27
2023-02-26T22:28:05.952Z,94.65
2023-02-26T22:30:36.897Z,94.02
2023-02-26T22:33:05.482Z,93.41
2023-02-26T22:35:34.687Z,92.83
2023-02-26T22:38:06.657Z,93.65
2023-02-26T22:40:37.581Z,94.33
2023-02-26T22:43:09.152Z,94.27
2023-02-26T22:45:37.752Z,94.47
2023-02-26T22:48:08.612Z,94.58
2023-02-26T22:50:37.191Z,94.32
2023-02-26T22:53:10.681Z,94.87
2023-02-26T22:55:47.476Z,95.32
2023-02-26T22:58:18.402Z,94.69
2023-02-26T23:00:50.110Z,94.98
2023-02-26T23:03:21.638Z,95.03
2023-02-26T23:05:50.434Z,94.43
2023-02-26T23:08:21.352Z,94.42
2023-02-26T23:10:59.027Z,94.43
2023-02-26T23:13:34.117Z,94.86
2023-02-26T23:16:08.631Z,94.92
2023-02-26T23:18:38.092Z,95.22
2023-02-26T23:21:09.193Z,95.21
2023-02-26T23:23:40.824Z,95.18
2023-02-26T23:26:15.770Z,95.06
2023-02-26T23:28:50.253Z,95.45
2023-02-26T23:31:25.293Z,95.49
2023-02-26T23:33:56.537Z,95.22
2023-02-26T23:36:28.040Z,95.36
2023-02-26T23:39:00.918Z,95.28
2023-02-26T23:41:32.794Z,95.08
2023-02-26T23:44:06.362Z,95.25
2023-02-26T23:46:42.898Z,94.87
2023-02-26T23:49:16.101Z,94.41
2023-02-26T23:51:46.606Z,94.84
2023-02-26T23:54:15.750Z,94.97
2023-02-26T23:56:47.736Z,94.74
2023-02-26T23:59:26.294Z,94.42
